Time;durP1;ratioP1;P1;durP2;ratioP2;P2;SDS_P1;SDS_P2;PMS_P1;PMS_P2;Temp;Humidity;BMP_temperature;BMP_pressure;BME280_temperature;BME280_humidity;BME280_pressure;Samples;Min_cycle;Max_cycle;Signal;HPM_P1;HPM_P2
2022/10/30 00:01:35;;;;;;;12.98;6.47;;;13.80;99.90;;;;;;6128239;19;20351;-72
2022/10/30 00:03:39;;;;;;;11.50;6.43;;;13.50;99.90;;;;;;6128546;19;19917;-72
2022/10/30 00:05:44;;;;;;;17.40;7.10;;;13.80;99.90;;;;;;6128908;19;19914;-72
2022/10/30 00:07:48;;;;;;;18.00;7.47;;;13.50;99.90;;;;;;6128369;19;19997;-72
2022/10/30 00:09:52;;;;;;;20.40;7.30;;;13.70;99.90;;;;;;6128802;19;19919;-71
2022/10/30 00:11:58;;;;;;;17.52;8.60;;;13.40;99.90;;;;;;6128877;19;19933;-72
2022/10/30 00:14:02;;;;;;;15.50;7.10;;;13.60;99.90;;;;;;6128256;19;20377;-72
2022/10/30 00:16:09;;;;;;;14.05;6.55;;;12.50;99.90;;;;;;6128804;19;19940;-72
2022/10/30 00:18:13;;;;;;;16.25;6.90;;;13.70;99.90;;;;;;6130824;19;19919;-72
2022/10/30 00:20:17;;;;;;;18.90;7.00;;;13.60;99.90;;;;;;6128043;19;19927;-72
2022/10/30 00:22:21;;;;;;;13.32;6.38;;;;;;;;;;6127314;19;19925;-72
2022/10/30 00:24:25;;;;;;;16.65;6.28;;;13.50;99.90;;;;;;6128207;19;19930;-72
2022/10/30 00:26:30;;;;;;;13.38;5.95;;;13.50;99.90;;;;;;6128176;19;19945;-72
2022/10/30 00:28:37;;;;;;;15.07;6.20;;;13.70;99.90;;;;;;6127916;19;19921;-72
2022/10/30 00:30:41;;;;;;;16.17;6.75;;;13.60;99.90;;;;;;6127880;19;19925;-71
2022/10/30 00:32:45;;;;;;;14.25;7.18;;;13.70;99.90;;;;;;6127479;19;19933;-72
2022/10/30 00:34:49;;;;;;;15.88;6.85;;;13.80;99.90;;;;;;6127826;19;19918;-72
2022/10/30 00:36:53;;;;;;;14.05;6.60;;;;;;;;;;6128228;19;19923;-72
2022/10/30 00:38:57;;;;;;;14.70;6.80;;;13.70;99.90;;;;;;6127880;19;19919;-72
2022/10/30 00:41:01;;;;;;;14.38;6.40;;;13.70;99.90;;;;;;6127548;19;19927;-71
2022/10/30 00:43:04;;;;;;;15.68;6.38;;;13.80;99.90;;;;;;6126047;19;20267;-72
2022/10/30 00:45:13;;;;;;;14.93;6.70;;;13.70;99.90;;;;;;6125847;19;19918;-72
2022/10/30 00:47:21;;;;;;;14.25;6.43;;;13.30;99.90;;;;;;6127437;19;19910;-72
2022/10/30 00:49:25;;;;;;;13.50;6.57;;;13.70;99.90;;;;;;6127582;19;19922;-72
2022/10/30 00:51:30;;;;;;;18.00;6.90;;;13.60;99.90;;;;;;6127318;19;19911;-72
2022/10/30 00:53:34;;;;;;;15.95;6.47;;;13.80;99.90;;;;;;6127503;19;19915;-72
2022/10/30 00:55:41;;;;;;;13.63;6.63;;;13.90;99.90;;;;;;6127161;19;19917;-72
2022/10/30 00:57:46;;;;;;;17.73;7.25;;;13.20;99.90;;;;;;6126117;19;19916;-72
2022/10/30 00:59:51;;;;;;;18.50;6.78;;;;;;;;;;6127542;19;19913;-72
2022/10/30 01:01:58;;;;;;;15.55;7.47;;;13.60;99.90;;;;;;6126622;19;19922;-72
2022/10/30 01:04:03;;;;;;;17.85;6.35;;;13.60;99.90;;;;;;6127264;19;19929;-72
2022/10/30 01:06:12;;;;;;;14.43;6.75;;;13.40;99.90;;;;;;6127226;19;20251;-72
2022/10/30 01:08:16;;;;;;;12.48;7.20;;;13.80;99.90;;;;;;6127302;19;19906;-72
2022/10/30 01:10:21;;;;;;;14.35;6.68;;;13.90;99.90;;;;;;6127484;19;19914;-72
2022/10/30 01:12:25;;;;;;;16.30;7.35;;;13.60;99.90;;;;;;6126957;19;19938;-72
2022/10/30 01:14:29;;;;;;;12.93;6.07;;;12.90;99.90;;;;;;6126951;19;19953;-72
2022/10/30 01:17:07;;;;;;;15.13;6.82;;;13.70;99.90;;;;;;6128823;19;19918;-71
2022/10/30 01:19:20;;;;;;;11.32;5.88;;;13.60;99.90;;;;;;6125404;19;19925;-71
2022/10/30 01:21:44;;;;;;;13.68;5.75;;;13.70;99.90;;;;;;6131782;19;20569;-72
2022/10/30 01:24:04;;;;;;;14.02;6.30;;;13.80;99.90;;;;;;6131240;19;20402;-72
2022/10/30 01:26:17;;;;;;;11.85;6.22;;;13.70;99.90;;;;;;6132016;19;20614;-72
2022/10/30 01:28:32;;;;;;;13.75;6.53;;;13.50;99.90;;;;;;6132027;19;19974;-71
2022/10/30 01:30:50;;;;;;;16.55;6.57;;;13.20;99.90;;;;;;6132656;19;19918;-72
2022/10/30 01:33:07;;;;;;;14.95;5.93;;;13.50;99.90;;;;;;6131278;19;19915;-72
2022/10/30 01:35:17;;;;;;;15.48;6.53;;;13.40;99.90;;;;;;6132289;19;19919;-72
2022/10/30 01:37:27;;;;;;;13.73;5.50;;;13.20;99.90;;;;;;6132244;19;19998;-72
2022/10/30 01:39:34;;;;;;;11.75;5.70;;;13.40;99.90;;;;;;6131752;19;19932;-72
2022/10/30 01:41:38;;;;;;;12.25;5.47;;;13.40;99.90;;;;;;6131452;19;19915;-72
2022/10/30 01:43:44;;;;;;;15.15;6.65;;;13.30;99.90;;;;;;6131754;19;19933;-72
2022/10/30 01:46:09;;;;;;;16.77;7.25;;;13.30;99.90;;;;;;6131611;19;20248;-72
2022/10/30 01:48:48;;;;;;;12.65;6.25;;;13.50;99.90;;;;;;6131861;19;19918;-72
2022/10/30 01:51:01;;;;;;;11.45;6.63;;;13.10;99.90;;;;;;6130298;19;19918;-72
2022/10/30 01:53:11;;;;;;;15.05;6.10;;;13.10;99.90;;;;;;6131994;19;19915;-72
2022/10/30 01:55:24;;;;;;;14.20;6.68;;;13.20;99.90;;;;;;6131666;19;19941;-72
2022/10/30 01:57:38;;;;;;;13.00;5.97;;;12.90;99.90;;;;;;6129608;19;20270;-72
2022/10/30 01:59:47;;;;;;;13.57;6.63;;;13.30;99.90;;;;;;6131451;19;19914;-72
2022/10/30 02:01:52;;;;;;;13.93;6.53;;;13.40;99.90;;;;;;6131098;19;20255;-71
2022/10/30 02:03:59;;;;;;;11.60;6.07;;;13.40;99.90;;;;;;6131727;19;19915;-72
2022/10/30 02:06:03;;;;;;;15.32;5.75;;;13.10;99.90;;;;;;6131200;19;19921;-71
2022/10/30 02:08:07;;;;;;;16.73;6.97;;;13.20;99.90;;;;;;6131408;19;19941;-72
2022/10/30 02:10:13;;;;;;;16.15;6.97;;;13.20;99.90;;;;;;6131476;19;19918;-72
2022/10/30 02:12:18;;;;;;;12.90;6.72;;;13.00;99.90;;;;;;6131199;19;19937;-72
2022/10/30 02:14:26;;;;;;;13.05;6.15;;;13.20;99.90;;;;;;6131826;19;20254;-71
2022/10/30 02:16:29;;;;;;;12.68;6.30;;;13.20;99.90;;;;;;6130924;19;19932;-71
2022/10/30 02:18:33;;;;;;;14.48;6.95;;;13.20;99.90;;;;;;6130853;19;19921;-72
2022/10/30 02:20:40;;;;;;;14.75;6.60;;;13.10;99.90;;;;;;6130736;19;19915;-72
2022/10/30 02:22:44;;;;;;;12.00;6.28;;;14.00;99.90;;;;;;6129580;19;20252;-71
2022/10/30 02:24:48;;;;;;;14.05;6.93;;;12.80;99.90;;;;;;6130990;19;19915;-72
2022/10/30 02:26:52;;;;;;;12.60;6.60;;;13.00;99.90;;;;;;6130772;19;19921;-71
2022/10/30 02:28:56;;;;;;;13.35;6.38;;;13.20;99.90;;;;;;6130794;19;19970;-72
2022/10/30 02:31:00;;;;;;;12.32;5.63;;;12.90;99.90;;;;;;6129629;19;19910;-72
2022/10/30 02:33:03;;;;;;;13.45;6.10;;;13.00;99.90;;;;;;6127967;19;19922;-72
2022/10/30 02:35:08;;;;;;;11.07;6.35;;;12.70;99.90;;;;;;6130610;19;19919;-71
2022/10/30 02:37:15;;;;;;;14.07;7.30;;;12.90;99.90;;;;;;6131081;19;19933;-72
2022/10/30 02:39:20;;;;;;;14.95;6.85;;;12.70;99.90;;;;;;6130297;19;19910;-71
2022/10/30 02:41:24;;;;;;;15.88;6.55;;;13.00;99.90;;;;;;6130343;19;20331;-72
2022/10/30 02:43:28;;;;;;;13.20;6.45;;;;;;;;;;6128992;19;19914;-72
2022/10/30 02:45:32;;;;;;;16.48;7.75;;;13.00;99.90;;;;;;6130846;19;19918;-72
2022/10/30 02:47:36;;;;;;;14.13;6.15;;;13.00;99.90;;;;;;6130246;19;19914;-72
2022/10/30 02:49:40;;;;;;;14.63;5.70;;;12.90;99.90;;;;;;6129892;19;19918;-72
2022/10/30 02:51:44;;;;;;;8.80;5.65;;;12.90;99.90;;;;;;6130317;19;19910;-73
2022/10/30 02:53:50;;;;;;;11.13;5.72;;;12.80;99.90;;;;;;6130001;19;20252;-72
2022/10/30 02:55:54;;;;;;;15.68;6.45;;;12.50;99.90;;;;;;6130341;19;19919;-72
2022/10/30 02:57:58;;;;;;;13.32;7.07;;;12.70;99.90;;;;;;6128584;19;19919;-72
2022/10/30 03:00:02;;;;;;;13.85;6.03;;;12.70;99.90;;;;;;6130078;19;19918;-72
2022/10/30 03:02:07;;;;;;;11.73;6.40;;;12.70;99.90;;;;;;6129912;19;19970;-73
2022/10/30 03:04:11;;;;;;;17.85;5.60;;;12.60;99.90;;;;;;6129910;19;20256;-73
2022/10/30 03:06:17;;;;;;;13.63;6.38;;;12.80;99.90;;;;;;6130006;19;20365;-72
2022/10/30 03:08:20;;;;;;;11.63;6.22;;;12.50;99.90;;;;;;6130013;19;19915;-72
2022/10/30 03:10:27;;;;;;;18.67;7.20;;;12.60;99.90;;;;;;6130247;19;19914;-72
2022/10/30 03:12:31;;;;;;;14.95;6.60;;;12.90;99.90;;;;;;6129742;19;20247;-72
2022/10/30 03:14:35;;;;;;;17.02;6.45;;;12.70;99.90;;;;;;6132983;19;19919;-73
2022/10/30 03:16:39;;;;;;;16.80;6.32;;;12.70;99.90;;;;;;6129969;19;19937;-72
2022/10/30 03:18:43;;;;;;;14.35;6.90;;;12.70;99.90;;;;;;6129098;19;19937;-72
2022/10/30 03:20:47;;;;;;;10.50;5.43;;;12.90;99.90;;;;;;6129607;19;19937;-72
2022/10/30 03:22:50;;;;;;;11.32;6.25;;;12.90;99.90;;;;;;6128808;19;19922;-72
2022/10/30 03:24:54;;;;;;;15.02;6.43;;;12.80;99.90;;;;;;6129913;19;19936;-72
2022/10/30 03:27:01;;;;;;;16.30;6.13;;;12.70;99.90;;;;;;6129415;19;19910;-72
2022/10/30 03:29:05;;;;;;;12.35;6.03;;;12.90;99.90;;;;;;6129286;19;19919;-72
2022/10/30 03:31:11;;;;;;;13.25;5.75;;;12.80;99.90;;;;;;6129385;19;19935;-72
2022/10/30 03:33:15;;;;;;;18.20;6.80;;;13.10;99.90;;;;;;6128317;19;19914;-72
2022/10/30 03:35:18;;;;;;;13.00;6.10;;;12.80;99.90;;;;;;6129227;19;19925;-72
2022/10/30 03:37:22;;;;;;;10.77;6.30;;;12.80;99.90;;;;;;6129291;19;19992;-72
2022/10/30 03:39:26;;;;;;;13.40;6.28;;;12.80;99.90;;;;;;6129170;19;19918;-72
2022/10/30 03:41:30;;;;;;;11.93;5.80;;;12.70;99.90;;;;;;6129127;19;19911;-72
2022/10/30 03:43:36;;;;;;;18.08;6.80;;;12.70;99.90;;;;;;6126695;19;19923;-72
2022/10/30 03:45:40;;;;;;;13.52;5.60;;;12.60;99.90;;;;;;6128933;19;19918;-72
2022/10/30 03:47:44;;;;;;;13.07;5.80;;;;;;;;;;6128808;19;19933;-72
2022/10/30 03:49:48;;;;;;;12.60;6.80;;;;;;;;;;6128651;19;20256;-72
2022/10/30 03:51:52;;;;;;;11.23;5.85;;;12.60;99.90;;;;;;6128768;19;19915;-72
2022/10/30 03:53:56;;;;;;;12.40;5.60;;;12.40;99.90;;;;;;6128619;19;19941;-72
2022/10/30 03:56:01;;;;;;;12.40;6.57;;;12.50;99.90;;;;;;6128836;19;19914;-71
2022/10/30 03:58:05;;;;;;;11.95;5.68;;;12.50;99.90;;;;;;6127201;19;19974;-71
2022/10/30 04:00:14;;;;;;;16.50;7.00;;;12.40;99.90;;;;;;6128666;19;19921;-71
2022/10/30 04:02:18;;;;;;;;;;;12.60;99.90;;;;;;6130939;19;19926;-72
2022/10/30 04:04:22;;;;;;;16.25;6.45;;;12.40;99.90;;;;;;6126868;19;19921;-72
2022/10/30 04:06:26;;;;;;;15.70;5.90;;;12.30;99.90;;;;;;6128590;19;19918;-72
2022/10/30 04:08:30;;;;;;;12.07;5.70;;;12.60;99.90;;;;;;6128404;19;19918;-72
2022/10/30 04:10:34;;;;;;;14.43;5.72;;;12.60;99.90;;;;;;6128799;19;19968;-72
2022/10/30 04:12:37;;;;;;;12.82;6.10;;;12.60;99.90;;;;;;6130819;19;19919;-72
2022/10/30 04:14:41;;;;;;;11.15;6.22;;;12.70;99.90;;;;;;6128470;19;19941;-71
2022/10/30 04:16:47;;;;;;;17.55;6.00;;;12.50;99.90;;;;;;6128274;19;20276;-72
2022/10/30 04:18:51;;;;;;;12.60;6.32;;;12.30;99.90;;;;;;6128021;19;19952;-71
2022/10/30 04:20:55;;;;;;;13.15;5.68;;;12.70;99.90;;;;;;6128227;19;19933;-71
2022/10/30 04:23:00;;;;;;;13.95;6.35;;;12.60;99.90;;;;;;6127665;19;20323;-71
2022/10/30 04:25:04;;;;;;;14.45;6.32;;;12.60;99.90;;;;;;6128048;19;20369;-72
2022/10/30 04:27:08;;;;;;;14.38;6.57;;;;;;;;;;6128127;19;19914;-72
2022/10/30 04:29:12;;;;;;;11.35;7.22;;;12.70;99.90;;;;;;6127877;19;19921;-72
2022/10/30 04:31:16;;;;;;;13.88;6.32;;;12.90;99.90;;;;;;6127990;19;19933;-72
2022/10/30 04:33:23;;;;;;;19.73;6.82;;;12.50;99.90;;;;;;6126833;19;19914;-71
2022/10/30 04:35:30;;;;;;;11.88;6.45;;;12.50;99.90;;;;;;6127758;19;19982;-72
2022/10/30 04:37:34;;;;;;;14.23;6.32;;;;;;;;;;6127924;19;19978;-72
2022/10/30 04:39:38;;;;;;;15.35;6.35;;;12.70;99.90;;;;;;6128049;19;19935;-72
2022/10/30 04:41:42;;;;;;;9.55;6.32;;;12.60;99.90;;;;;;6127810;19;20033;-72
2022/10/30 04:43:46;;;;;;;14.20;6.38;;;12.60;99.90;;;;;;6127356;19;19922;-72
2022/10/30 04:45:50;;;;;;;15.43;7.18;;;12.80;99.90;;;;;;6127697;19;19919;-72
2022/10/30 04:47:54;;;;;;;14.13;6.38;;;12.70;99.90;;;;;;6127603;19;20718;-71
2022/10/30 04:50:00;;;;;;;11.05;6.00;;;12.50;99.90;;;;;;6126963;19;19915;-72
2022/10/30 04:52:04;;;;;;;17.83;6.32;;;12.60;99.90;;;;;;6127991;19;19948;-72
2022/10/30 04:54:08;;;;;;;12.25;6.35;;;12.20;99.90;;;;;;6126868;19;19937;-72
2022/10/30 04:56:12;;;;;;;12.45;6.63;;;12.80;99.90;;;;;;6126024;19;20008;-71
2022/10/30 04:58:16;;;;;;;10.40;6.85;;;12.70;99.90;;;;;;6127465;19;20301;-71
2022/10/30 05:00:20;;;;;;;11.95;7.18;;;12.60;99.90;;;;;;6127347;19;19918;-71
2022/10/30 05:02:24;;;;;;;13.95;7.57;;;12.70;99.90;;;;;;6127188;19;19936;-71
2022/10/30 05:04:28;;;;;;;13.27;8.00;;;12.50;99.90;;;;;;6126310;19;19915;-71
2022/10/30 05:06:35;;;;;;;15.52;8.10;;;12.80;99.90;;;;;;6127111;19;19915;-71
2022/10/30 05:08:39;;;;;;;13.75;7.38;;;12.70;99.90;;;;;;6127470;19;19933;-70
2022/10/30 05:10:43;;;;;;;15.15;7.65;;;12.70;99.90;;;;;;6128358;19;19933;-71
2022/10/30 05:12:47;;;;;;;17.85;7.25;;;12.70;99.90;;;;;;6126813;19;19911;-71
2022/10/30 05:14:51;;;;;;;15.02;7.45;;;12.60;99.90;;;;;;6126792;19;19915;-72
2022/10/30 05:16:55;;;;;;;12.60;6.25;;;12.80;99.90;;;;;;6127076;19;19918;-72
2022/10/30 05:18:59;;;;;;;16.77;6.90;;;12.70;99.90;;;;;;6126382;19;20343;-71
2022/10/30 05:21:02;;;;;;;16.23;6.88;;;12.60;99.90;;;;;;6126845;19;20235;-73
2022/10/30 05:23:09;;;;;;;14.63;6.65;;;12.60;99.90;;;;;;6126432;19;20569;-72
2022/10/30 05:25:14;;;;;;;18.80;6.85;;;12.60;99.90;;;;;;6125082;19;19945;-71
2022/10/30 05:27:18;;;;;;;15.48;6.43;;;12.40;99.90;;;;;;6126755;19;19978;-72
2022/10/30 05:29:22;;;;;;;12.73;6.65;;;12.60;99.90;;;;;;6126628;19;19918;-72
2022/10/30 05:31:26;;;;;;;15.25;6.55;;;12.60;99.90;;;;;;6126661;19;20359;-72
2022/10/30 05:33:30;;;;;;;11.98;6.53;;;12.60;99.90;;;;;;6125186;19;19919;-72
2022/10/30 05:35:34;;;;;;;15.55;7.55;;;12.70;99.90;;;;;;6126309;19;19914;-71
2022/10/30 05:37:38;;;;;;;15.63;5.80;;;12.40;99.90;;;;;;6126283;19;19940;-71
2022/10/30 05:39:45;;;;;;;15.40;7.05;;;12.60;99.90;;;;;;6126475;19;19921;-71
2022/10/30 05:41:49;;;;;;;13.93;6.38;;;;;;;;;;6126260;19;19911;-71
2022/10/30 05:43:53;;;;;;;14.95;6.40;;;12.60;99.90;;;;;;6125369;19;19906;-71
2022/10/30 05:45:56;;;;;;;14.60;6.75;;;12.60;99.90;;;;;;6126323;19;19934;-71
2022/10/30 05:48:02;;;;;;;15.73;6.68;;;12.60;99.90;;;;;;6126343;19;19918;-71
2022/10/30 05:50:06;;;;;;;18.40;7.95;;;12.50;99.90;;;;;;6125476;19;19911;-71
2022/10/30 05:52:10;;;;;;;17.67;7.47;;;12.40;99.90;;;;;;6125952;19;19914;-71
2022/10/30 05:54:14;;;;;;;13.52;6.88;;;;;;;;;;6125635;19;19941;-71
2022/10/30 05:56:21;;;;;;;12.30;7.00;;;12.50;99.90;;;;;;6125666;19;19919;-71
2022/10/30 05:58:25;;;;;;;12.50;5.88;;;12.40;99.90;;;;;;6125712;19;19915;-71
2022/10/30 06:00:30;;;;;;;15.85;6.53;;;12.50;99.90;;;;;;6126575;19;19918;-71
2022/10/30 06:02:34;;;;;;;14.23;7.30;;;12.30;99.90;;;;;;6125720;19;19934;-71
2022/10/30 06:04:38;;;;;;;12.63;6.00;;;12.30;99.90;;;;;;6124179;19;19983;-71
2022/10/30 06:06:42;;;;;;;14.85;5.80;;;12.10;99.90;;;;;;6128767;19;19911;-71
2022/10/30 06:08:46;;;;;;;16.95;6.38;;;12.30;99.90;;;;;;6131705;19;19982;-71
2022/10/30 06:10:50;;;;;;;15.98;6.18;;;12.30;99.90;;;;;;6131447;19;19924;-71
2022/10/30 06:12:58;;;;;;;13.77;5.78;;;12.30;99.90;;;;;;6130948;19;19945;-71
2022/10/30 06:15:02;;;;;;;15.82;6.68;;;12.30;99.90;;;;;;6131402;19;19925;-71
2022/10/30 06:17:06;;;;;;;21.13;6.97;;;12.40;99.90;;;;;;6130988;19;20274;-71
2022/10/30 06:19:10;;;;;;;15.07;6.45;;;12.50;99.90;;;;;;6130895;19;19944;-71
2022/10/30 06:21:13;;;;;;;17.65;6.65;;;12.20;99.90;;;;;;6130429;19;19910;-71
2022/10/30 06:23:17;;;;;;;13.70;5.55;;;12.40;99.90;;;;;;6130644;19;19910;-71
2022/10/30 06:25:21;;;;;;;14.95;7.05;;;12.00;99.90;;;;;;6128321;19;19914;-71
2022/10/30 06:27:25;;;;;;;16.45;6.65;;;12.30;99.90;;;;;;6130676;19;19915;-71
2022/10/30 06:29:31;;;;;;;10.18;6.57;;;12.30;99.90;;;;;;6131147;19;20267;-71
2022/10/30 06:31:36;;;;;;;17.70;6.78;;;12.10;99.90;;;;;;6131117;19;19919;-71
2022/10/30 06:33:40;;;;;;;13.05;5.97;;;12.20;99.90;;;;;;6129595;19;19922;-71
2022/10/30 06:35:44;;;;;;;15.38;6.95;;;12.10;99.90;;;;;;6131056;19;20264;-71
2022/10/30 06:37:50;;;;;;;16.17;6.20;;;11.90;99.90;;;;;;6130467;19;20232;-72
2022/10/30 06:39:54;;;;;;;12.55;6.63;;;;;;;;;;6130578;19;19911;-71
2022/10/30 06:41:57;;;;;;;12.45;6.28;;;12.20;99.90;;;;;;6130425;19;20243;-71
2022/10/30 06:44:01;;;;;;;11.38;6.28;;;12.30;99.90;;;;;;6129946;19;19914;-71
2022/10/30 06:46:09;;;;;;;14.30;6.45;;;12.50;99.90;;;;;;6130697;19;19918;-71
2022/10/30 06:48:13;;;;;;;12.85;7.15;;;12.20;99.90;;;;;;6130577;19;19918;-71
2022/10/30 06:50:20;;;;;;;14.32;7.45;;;12.40;99.90;;;;;;6129996;19;19914;-71
2022/10/30 06:52:25;;;;;;;15.70;7.10;;;12.30;99.90;;;;;;6130476;19;19941;-71
2022/10/30 06:54:29;;;;;;;22.75;6.82;;;12.40;99.90;;;;;;6129996;19;19925;-71
2022/10/30 06:56:33;;;;;;;15.60;6.55;;;12.10;99.90;;;;;;6128222;19;20294;-71
2022/10/30 06:58:38;;;;;;;12.88;6.15;;;12.10;99.90;;;;;;6127732;19;19921;-71
2022/10/30 07:00:41;;;;;;;17.15;6.90;;;12.10;99.90;;;;;;6129942;19;20271;-72
2022/10/30 07:02:56;;;;;;;14.82;7.15;;;12.10;99.90;;;;;;6129908;19;19915;-71
2022/10/30 07:05:01;;;;;;;12.25;6.40;;;;;;;;;;6128614;19;20029;-72
2022/10/30 07:07:06;;;;;;;17.25;6.63;;;12.10;99.90;;;;;;6129948;19;19921;-71
2022/10/30 07:09:10;;;;;;;17.20;7.40;;;12.40;99.90;;;;;;6129754;19;19948;-71
2022/10/30 07:11:13;;;;;;;13.38;6.53;;;12.10;99.90;;;;;;6129740;19;20338;-71
2022/10/30 07:13:18;;;;;;;13.77;6.78;;;12.30;99.90;;;;;;6129796;19;19945;-72
2022/10/30 07:15:21;;;;;;;15.80;7.38;;;12.40;99.90;;;;;;6129927;19;19911;-72
2022/10/30 07:17:25;;;;;;;21.55;8.55;;;12.20;99.90;;;;;;6128265;19;19925;-71
2022/10/30 07:19:32;;;;;;;17.55;7.70;;;12.20;99.90;;;;;;6128941;19;19926;-71
2022/10/30 07:21:36;;;;;;;16.35;7.45;;;12.20;99.90;;;;;;6129538;19;19915;-71
2022/10/30 07:23:39;;;;;;;15.68;6.97;;;12.50;99.90;;;;;;6129817;19;19951;-71
2022/10/30 07:25:43;;;;;;;18.25;7.30;;;12.30;99.90;;;;;;6127448;19;19918;-71
2022/10/30 07:27:49;;;;;;;16.10;8.05;;;12.50;99.90;;;;;;6129480;19;19921;-71
2022/10/30 07:29:53;;;;;;;16.23;7.30;;;12.20;99.90;;;;;;6129460;19;20296;-72
2022/10/30 07:31:56;;;;;;;14.35;7.47;;;12.60;99.90;;;;;;6129173;19;20473;-71
2022/10/30 07:34:00;;;;;;;17.13;7.93;;;;;;;;;;6127478;19;19921;-71
2022/10/30 07:36:08;;;;;;;17.02;7.70;;;12.50;99.90;;;;;;6128940;19;20332;-72
2022/10/30 07:38:14;;;;;;;14.88;7.22;;;12.70;99.90;;;;;;6129175;19;19922;-71
2022/10/30 07:40:18;;;;;;;14.60;8.05;;;;;;;;;;6129128;19;19925;-71
2022/10/30 07:42:22;;;;;;;17.38;6.90;;;12.60;99.90;;;;;;6129184;19;19919;-71
2022/10/30 07:44:25;;;;;;;14.88;7.30;;;12.80;99.90;;;;;;6128690;19;19915;-71
2022/10/30 07:46:29;;;;;;;16.67;7.45;;;12.50;99.90;;;;;;6129205;19;19964;-71
2022/10/30 07:48:33;;;;;;;14.65;6.88;;;12.40;99.90;;;;;;6128540;19;20279;-72
2022/10/30 07:50:37;;;;;;;16.30;6.97;;;12.50;99.90;;;;;;6128916;19;20335;-72
2022/10/30 07:52:43;;;;;;;16.50;7.38;;;12.70;99.90;;;;;;6128988;19;19911;-71
2022/10/30 07:54:47;;;;;;;15.55;7.32;;;12.80;99.90;;;;;;6129065;19;19918;-72
2022/10/30 07:56:51;;;;;;;11.82;6.70;;;12.80;99.90;;;;;;6128900;19;19919;-72
2022/10/30 07:58:55;;;;;;;14.57;6.93;;;12.90;99.90;;;;;;6128644;19;19919;-72
2022/10/30 08:00:59;;;;;;;14.90;6.93;;;12.90;99.90;;;;;;6128790;19;20307;-71
2022/10/30 08:03:05;;;;;;;21.95;7.93;;;12.60;99.90;;;;;;6128505;19;19933;-72
2022/10/30 08:05:09;;;;;;;15.27;6.32;;;12.70;99.90;;;;;;6127542;19;20029;-72
2022/10/30 08:07:13;;;;;;;13.88;6.97;;;12.70;99.90;;;;;;6131284;19;19915;-71
2022/10/30 08:09:20;;;;;;;17.25;7.03;;;12.80;99.90;;;;;;6128472;19;20270;-71
2022/10/30 08:11:23;;;;;;;15.07;7.03;;;12.90;99.90;;;;;;6128909;19;19919;-71
2022/10/30 08:13:27;;;;;;;19.58;8.25;;;;;;;;;;6128294;19;20872;-72
2022/10/30 08:15:31;;;;;;;15.82;7.22;;;12.90;99.90;;;;;;6128310;19;19933;-71
2022/10/30 08:17:42;;;;;;;15.90;7.22;;;13.00;99.90;;;;;;6128609;19;19922;-72
2022/10/30 08:19:46;;;;;;;15.63;7.63;;;13.00;99.90;;;;;;6127981;19;19914;-72
2022/10/30 08:21:50;;;;;;;17.08;8.05;;;13.10;99.90;;;;;;6128071;19;19919;-72
2022/10/30 08:23:53;;;;;;;14.55;7.57;;;13.50;99.90;;;;;;6128101;19;20310;-71
2022/10/30 08:26:01;;;;;;;16.35;7.38;;;13.00;99.90;;;;;;6126779;19;19915;-72
2022/10/30 08:28:07;;;;;;;16.00;7.40;;;12.90;99.90;;;;;;6128134;19;19914;-72
2022/10/30 08:30:13;;;;;;;14.27;6.75;;;13.20;99.90;;;;;;6127845;19;19922;-71
2022/10/30 08:32:16;;;;;;;17.02;7.80;;;13.30;99.90;;;;;;6127766;19;19919;-72
2022/10/30 08:34:20;;;;;;;12.80;7.35;;;13.00;99.90;;;;;;6127464;19;19919;-72
2022/10/30 08:36:24;;;;;;;14.07;8.30;;;13.50;99.90;;;;;;6127978;19;19911;-71
2022/10/30 08:38:29;;;;;;;19.25;8.77;;;13.50;99.90;;;;;;6127731;19;20299;-71
2022/10/30 08:40:33;;;;;;;14.82;7.28;;;13.50;99.90;;;;;;6128034;19;19915;-72
2022/10/30 08:42:40;;;;;;;13.70;7.63;;;13.40;99.90;;;;;;6127846;19;19918;-72
2022/10/30 08:44:44;;;;;;;17.27;7.68;;;13.30;99.90;;;;;;6127070;19;19918;-72
2022/10/30 08:46:47;;;;;;;17.10;7.72;;;13.50;99.90;;;;;;6127696;19;19944;-72
2022/10/30 08:48:53;;;;;;;17.27;7.57;;;13.30;99.90;;;;;;6127146;19;19925;-72
2022/10/30 08:51:00;;;;;;;17.77;8.10;;;13.80;99.90;;;;;;6127245;19;19915;-72
2022/10/30 08:53:06;;;;;;;18.08;8.02;;;13.70;99.90;;;;;;6127323;19;19919;-72
2022/10/30 08:55:11;;;;;;;17.95;7.85;;;13.90;99.90;;;;;;6127151;19;19921;-73
2022/10/30 08:57:15;;;;;;;12.98;7.88;;;13.60;99.90;;;;;;6127136;19;20270;-73
2022/10/30 08:59:21;;;;;;;13.57;7.25;;;13.80;99.90;;;;;;6127422;19;20272;-73
2022/10/30 09:01:25;;;;;;;16.15;7.55;;;13.80;99.90;;;;;;6127429;19;19915;-70
2022/10/30 09:03:29;;;;;;;14.55;8.00;;;13.80;99.90;;;;;;6127180;19;20306;-71
2022/10/30 09:05:33;;;;;;;13.07;7.75;;;14.00;99.90;;;;;;6128547;19;19933;-71
2022/10/30 09:07:38;;;;;;;16.23;7.95;;;;;;;;;;6127196;19;20274;-71
2022/10/30 09:09:42;;;;;;;17.48;8.18;;;;;;;;;;6127073;19;19946;-72
2022/10/30 09:11:46;;;;;;;15.10;7.97;;;14.40;99.90;;;;;;6127200;19;19911;-72
2022/10/30 09:13:49;;;;;;;25.60;8.73;;;13.80;99.90;;;;;;6127550;19;19919;-72
2022/10/30 09:15:56;;;;;;;18.40;7.90;;;14.20;99.90;;;;;;6126982;19;20033;-72
2022/10/30 09:18:01;;;;;;;20.00;8.18;;;14.30;99.90;;;;;;6126715;19;19911;-72
2022/10/30 09:20:05;;;;;;;19.50;8.15;;;14.30;99.90;;;;;;6126117;19;19941;-72
2022/10/30 09:22:09;;;;;;;18.45;8.25;;;14.40;99.90;;;;;;6126500;19;19922;-72
2022/10/30 09:24:13;;;;;;;15.27;8.32;;;14.40;99.90;;;;;;6126628;19;20322;-72
2022/10/30 09:26:17;;;;;;;15.75;8.15;;;14.40;99.90;;;;;;6125236;19;20404;-71
2022/10/30 09:28:21;;;;;;;18.40;8.30;;;14.50;99.90;;;;;;6126324;19;19915;-72
2022/10/30 09:30:25;;;;;;;15.60;7.88;;;14.40;99.90;;;;;;6126341;19;19918;-72
2022/10/30 09:32:31;;;;;;;17.13;8.48;;;14.50;99.90;;;;;;6125791;19;20036;-72
2022/10/30 09:34:35;;;;;;;17.70;8.13;;;14.50;99.90;;;;;;6126238;19;20339;-71
2022/10/30 09:36:39;;;;;;;16.35;8.30;;;14.60;99.90;;;;;;6126259;19;20263;-72
2022/10/30 09:38:42;;;;;;;15.00;8.40;;;14.60;99.90;;;;;;6126193;19;19919;-72
2022/10/30 09:41:09;;;;;;;19.02;7.88;;;15.20;99.90;;;;;;6126513;19;19926;-72
2022/10/30 09:43:24;;;;;;;20.27;9.18;;;15.30;99.90;;;;;;6131609;19;19922;-72
2022/10/30 09:45:50;;;;;;;21.13;9.32;;;15.20;99.90;;;;;;6130650;19;20255;-73
2022/10/30 09:48:08;;;;;;;18.77;8.65;;;15.10;99.90;;;;;;6131547;19;19951;-72
2022/10/30 09:50:27;;;;;;;19.52;8.93;;;15.30;99.90;;;;;;6130827;19;19919;-72
2022/10/30 09:52:36;;;;;;;18.13;8.98;;;15.30;99.90;;;;;;6131497;19;19936;-71
2022/10/30 09:54:56;;;;;;;17.35;8.70;;;14.90;99.90;;;;;;6131380;19;19925;-71
2022/10/30 09:57:04;;;;;;;22.48;8.40;;;15.40;99.90;;;;;;6131562;19;19925;-71
2022/10/30 09:59:15;;;;;;;15.60;9.35;;;15.50;99.90;;;;;;6131506;19;19914;-71
2022/10/30 10:01:24;;;;;;;16.88;7.85;;;15.50;99.90;;;;;;6131329;19;19945;-72
2022/10/30 10:03:41;;;;;;;14.25;8.05;;;15.90;99.90;;;;;;6132258;19;19946;-72
2022/10/30 10:05:52;;;;;;;15.10;8.38;;;15.90;99.90;;;;;;6129835;19;19915;-72
2022/10/30 10:07:59;;;;;;;13.73;7.85;;;16.60;99.90;;;;;;6131497;19;19919;-71
2022/10/30 10:10:06;;;;;;;19.17;8.45;;;15.60;99.90;;;;;;6131029;19;19920;-72
2022/10/30 10:12:15;;;;;;;15.48;8.60;;;15.60;99.90;;;;;;6130909;19;19910;-72
2022/10/30 10:14:23;;;;;;;18.80;9.05;;;15.90;99.90;;;;;;6131158;19;19915;-72
2022/10/30 10:16:30;;;;;;;16.25;9.10;;;15.80;99.90;;;;;;6130473;19;19937;-72
2022/10/30 10:18:44;;;;;;;16.58;8.88;;;15.70;99.90;;;;;;6130747;19;19928;-71
2022/10/30 10:20:52;;;;;;;24.55;10.02;;;16.00;99.90;;;;;;6130941;19;19928;-72
2022/10/30 10:22:58;;;;;;;13.38;8.75;;;16.40;99.90;;;;;;6130336;19;20335;-71
2022/10/30 10:25:04;;;;;;;19.63;8.85;;;16.30;99.90;;;;;;6130469;19;19945;-71
2022/10/30 10:27:14;;;;;;;19.13;8.38;;;16.40;99.90;;;;;;6130589;19;19911;-71
2022/10/30 10:29:39;;;;;;;16.42;9.15;;;17.10;99.90;;;;;;6130533;19;19918;-71
2022/10/30 10:31:50;;;;;;;15.50;8.18;;;16.70;99.90;;;;;;6130767;19;19929;-72
2022/10/30 10:34:10;;;;;;;15.23;8.48;;;16.70;99.90;;;;;;6128560;19;19934;-72
2022/10/30 10:36:25;;;;;;;14.98;8.00;;;17.40;99.90;;;;;;6130320;19;19918;-72
2022/10/30 10:38:53;;;;;;;20.30;8.65;;;16.80;99.90;;;;;;6130797;19;19911;-72
2022/10/30 10:41:06;;;;;;;16.73;8.23;;;16.70;99.90;;;;;;6130094;19;19917;-72
2022/10/30 10:43:23;;;;;;;17.15;7.82;;;16.90;99.90;;;;;;6130174;19;20267;-72
2022/10/30 10:45:36;;;;;;;16.52;7.03;;;17.40;99.90;;;;;;6130315;19;19931;-72
2022/10/30 10:48:02;;;;;;;16.33;8.13;;;18.20;99.90;;;;;;6129830;19;19938;-72
2022/10/30 10:50:20;;;;;;;14.07;7.85;;;17.40;99.90;;;;;;6129891;19;19918;-72
2022/10/30 10:52:26;;;;;;;20.00;7.43;;;17.50;99.90;;;;;;6128118;19;19946;-72
2022/10/30 10:54:34;;;;;;;16.92;8.07;;;17.80;99.90;;;;;;6130043;19;19915;-71